Time;durP1;ratioP1;P1;durP2;ratioP2;P2;SDS_P1;SDS_P2;PMS_P1;PMS_P2;Temp;Humidity;BMP_temperature;BMP_pressure;BME280_temperature;BME280_humidity;BME280_pressure;Samples;Min_cycle;Max_cycle;Signal;HPM_P1;HPM_P2
2023/04/06 00:01:21;;;;;;;0.30;0.30;;;;;;;18.85;43.98;101451.75;5093850;28;20530;-45
2023/04/06 00:03:47;;;;;;;0.30;0.30;;;;;;;18.85;43.63;101446.22;5094672;28;20055;-48
2023/04/06 00:06:12;;;;;;;0.20;0.20;;;;;;;18.85;43.85;101443.47;5093442;28;20044;-46
2023/04/06 00:08:39;;;;;;;0.20;0.20;;;;;;;18.84;43.67;101452.84;5094236;28;20047;-45
2023/04/06 00:11:05;;;;;;;0.25;0.25;;;;;;;18.85;43.75;101448.16;5094114;28;20048;-46
2023/04/06 00:13:30;;;;;;;0.30;0.30;;;;;;;18.86;44.00;101444.28;5095020;28;20137;-47
2023/04/06 00:15:56;;;;;;;0.30;0.30;;;;;;;18.85;43.87;101440.72;5114733;28;20046;-48
2023/04/06 00:18:22;;;;;;;0.30;0.30;;;;;;;18.86;43.92;101447.88;5114541;28;20191;-45
2023/04/06 00:20:48;;;;;;;0.20;0.20;;;;;;;18.85;44.01;101446.22;5114331;28;20051;-47
2023/04/06 00:23:14;;;;;;;0.30;0.30;;;;;;;18.86;43.75;101441.53;5114742;28;20392;-46
2023/04/06 00:25:40;;;;;;;0.20;0.20;;;;;;;18.85;43.56;101437.94;5114519;28;20043;-46
2023/04/06 00:28:05;;;;;;;0.20;0.20;;;;;;;18.85;43.67;101440.72;5116390;27;20100;-45
2023/04/06 00:30:31;;;;;;;0.30;0.30;;;;;;;18.85;43.82;101432.44;5118141;27;20418;-48
2023/04/06 00:32:57;;;;;;;0.20;0.20;;;;;;;18.86;43.69;101430.50;5103497;28;20050;-49
2023/04/06 00:35:22;;;;;;;0.30;0.30;;;;;;;18.86;43.94;101433.25;5097746;28;20297;-45
2023/04/06 00:37:48;;;;;;;0.20;0.20;;;;;;;18.86;43.83;101433.25;5105207;28;20559;-47
2023/04/06 00:40:14;;;;;;;0.20;0.20;;;;;;;18.85;43.88;101429.66;5117427;28;20045;-48
2023/04/06 00:42:41;;;;;;;0.30;0.30;;;;;;;18.85;43.92;101426.91;5117622;28;20043;-45
2023/04/06 00:45:07;;;;;;;0.20;0.20;;;;;;;18.85;43.75;101424.16;5117665;28;20089;-49
2023/04/06 00:47:33;;;;;;;0.30;0.30;;;;;;;18.86;43.70;101424.97;5117484;27;20112;-45
2023/04/06 00:49:58;;;;;;;0.20;0.20;;;;;;;18.85;43.78;101415.03;5099018;28;20143;-45
2023/04/06 00:52:24;;;;;;;0.30;0.30;;;;;;;18.84;43.69;101419.72;5107557;28;20457;-46
2023/04/06 00:54:50;;;;;;;0.30;0.30;;;;;;;18.85;43.61;101410.34;5097754;28;20448;-48
2023/04/06 00:57:16;;;;;;;0.30;0.30;;;;;;;18.85;43.84;101399.31;5097366;28;20308;-46
2023/04/06 00:59:42;;;;;;;0.30;0.30;;;;;;;18.84;43.73;101403.19;5097029;28;20040;-46
2023/04/06 01:02:08;;;;;;;0.20;0.20;;;;;;;18.85;43.61;101401.25;5096960;28;20047;-46
2023/04/06 01:04:34;;;;;;;0.22;0.22;;;;;;;18.86;43.61;101402.91;5079007;28;20175;-46
2023/04/06 01:07:00;;;;;;;0.30;0.30;;;;;;;18.86;43.88;101397.38;5097666;28;20415;-47
2023/04/06 01:09:28;;;;;;;0.30;0.30;;;;;;;18.86;43.75;101392.69;5096957;27;20052;-46
2023/04/06 01:11:53;;;;;;;0.30;0.30;;;;;;;18.86;43.79;101392.69;5102434;28;20086;-45
2023/04/06 01:14:20;;;;;;;0.20;0.20;;;;;;;18.85;43.61;101388.28;5117618;28;20035;-47
2023/04/06 01:16:45;;;;;;;0.20;0.20;;;;;;;18.85;43.70;101388.28;5117986;28;20430;-45
2023/04/06 01:19:12;;;;;;;0.30;0.30;;;;;;;18.86;43.75;101389.09;5117112;28;20087;-45
2023/04/06 01:21:39;;;;;;;0.30;0.30;;;;;;;18.85;43.64;101385.50;5117151;28;20051;-47
2023/04/06 01:24:05;;;;;;;0.30;0.30;;;;;;;18.86;43.83;101389.09;5098856;28;20532;-45
2023/04/06 01:26:32;;;;;;;0.30;0.30;;;;;;;18.86;43.82;101378.88;5099188;28;20558;-46
2023/04/06 01:28:58;;;;;;;0.30;0.30;;;;;;;18.86;43.75;101378.06;5093601;28;20079;-45
2023/04/06 01:31:23;;;;;;;0.30;0.30;;;;;;;18.86;43.68;101380.81;5113747;28;20511;-46
2023/04/06 01:33:49;;;;;;;0.30;0.30;;;;;;;18.85;43.76;101377.22;5116752;28;20044;-46
2023/04/06 01:36:15;;;;;;;0.30;0.30;;;;;;;18.86;43.74;101370.59;5117130;28;20047;-45
2023/04/06 01:38:41;;;;;;;0.30;0.30;;;;;;;18.85;43.62;101376.41;5101624;28;20042;-44
2023/04/06 01:41:07;;;;;;;0.30;0.30;;;;;;;18.85;43.89;101366.19;5095874;28;20043;-46
2023/04/06 01:43:33;;;;;;;0.30;0.30;;;;;;;18.85;43.88;101371.72;5096977;28;20043;-46
2023/04/06 01:45:59;;;;;;;0.30;0.30;;;;;;;18.85;43.84;101365.38;5116333;28;20058;-47
2023/04/06 01:48:25;;;;;;;0.20;0.20;;;;;;;18.85;43.72;101371.72;5117138;28;20076;-46
2023/04/06 01:50:51;;;;;;;0.30;0.30;;;;;;;18.85;43.58;101363.44;5116583;28;20224;-46
2023/04/06 01:53:17;;;;;;;0.20;0.20;;;;;;;18.85;43.56;101366.19;5116476;28;20479;-44
2023/04/06 01:55:42;;;;;;;0.30;0.30;;;;;;;18.85;43.77;101363.44;5116646;28;20043;-45
2023/04/06 01:58:08;;;;;;;0.30;0.30;;;;;;;18.85;43.55;101360.69;5116906;28;20051;-46
2023/04/06 02:00:34;;;;;;;0.30;0.30;;;;;;;18.85;43.62;101366.19;5116400;28;20039;-45
2023/04/06 02:03:00;;;;;;;0.30;0.30;;;;;;;18.85;43.59;101360.69;5116286;28;20047;-45
2023/04/06 02:05:26;;;;;;;0.30;0.30;;;;;;;18.85;43.66;101366.19;5116259;28;20051;-44
2023/04/06 02:07:52;;;;;;;0.30;0.30;;;;;;;18.85;43.85;101357.91;5098201;28;20058;-46
2023/04/06 02:10:17;;;;;;;0.30;0.30;;;;;;;18.85;43.90;101352.41;5105626;27;20408;-46
2023/04/06 02:12:43;;;;;;;0.20;0.20;;;;;;;18.84;43.77;101350.75;5107734;28;20051;-46
2023/04/06 02:15:09;;;;;;;0.30;0.30;;;;;;;18.86;43.81;101353.22;5115975;28;20043;-46
2023/04/06 02:17:35;;;;;;;4.47;0.55;;;;;;;18.85;43.69;101349.63;5115893;28;20550;-46
2023/04/06 02:20:01;;;;;;;0.20;0.20;;;;;;;18.84;43.53;101350.75;5097621;28;20043;-46
2023/04/06 02:22:26;;;;;;;0.30;0.30;;;;;;;18.86;43.75;101350.47;5115835;28;20729;-45
2023/04/06 02:24:52;;;;;;;0.30;0.30;;;;;;;18.86;43.53;101345.78;5116005;28;20043;-45
2023/04/06 02:27:18;;;;;;;0.30;0.30;;;;;;;18.85;43.38;101349.63;5116135;28;20047;-47
2023/04/06 02:29:43;;;;;;;0.20;0.20;;;;;;;18.86;43.72;101345.78;5115807;28;20543;-45
2023/04/06 02:32:09;;;;;;;0.30;0.30;;;;;;;18.85;43.52;101344.13;5115694;28;20051;-45
2023/04/06 02:34:35;;;;;;;0.30;0.30;;;;;;;18.86;43.74;101350.47;5115716;28;20043;-45
2023/04/06 02:37:00;;;;;;;0.20;0.20;;;;;;;18.86;43.67;101342.19;5115664;28;20043;-46
2023/04/06 02:39:26;;;;;;;0.20;0.20;;;;;;;18.85;43.78;101338.59;5116284;28;20049;-48
2023/04/06 02:41:52;;;;;;;0.30;0.30;;;;;;;18.85;43.55;101343.28;5115570;28;20392;-47
2023/04/06 02:44:18;;;;;;;0.20;0.20;;;;;;;18.86;43.69;101342.19;5115528;28;20099;-46
2023/04/06 02:46:43;;;;;;;0.30;0.30;;;;;;;18.85;43.72;101341.34;5115547;28;20069;-45
2023/04/06 02:49:09;;;;;;;0.30;0.30;;;;;;;18.85;43.86;101341.34;5115418;27;20049;-46
2023/04/06 02:51:35;;;;;;;0.22;0.22;;;;;;;18.85;43.54;101338.59;5113039;28;20047;-46
2023/04/06 02:54:01;;;;;;;0.20;0.20;;;;;;;18.86;43.86;101336.66;5095177;28;20460;-48
2023/04/06 02:56:26;;;;;;;0.30;0.30;;;;;;;18.87;43.65;101343.84;5095079;28;20050;-45
2023/04/06 02:58:52;;;;;;;0.30;0.30;;;;;;;18.86;43.55;101333.91;5095128;28;20551;-47
2023/04/06 03:01:18;;;;;;;0.20;0.20;;;;;;;18.86;43.55;101339.44;5095173;28;20065;-46
2023/04/06 03:03:44;;;;;;;0.30;0.30;;;;;;;18.85;43.78;101338.59;5094794;28;20044;-45
2023/04/06 03:06:10;;;;;;;0.30;0.30;;;;;;;18.85;43.56;101338.59;5095004;28;20574;-46
2023/04/06 03:08:35;;;;;;;0.20;0.20;;;;;;;18.84;43.73;101328.66;5094810;28;20149;-45
2023/04/06 03:11:01;;;;;;;0.22;0.22;;;;;;;18.85;43.75;101333.09;5094998;28;20043;-46
2023/04/06 03:13:27;;;;;;;0.30;0.30;;;;;;;18.85;43.54;101335.00;5094748;28;20047;-46
2023/04/06 03:15:52;;;;;;;0.20;0.20;;;;;;;18.84;43.81;101328.66;5094372;28;20044;-45
2023/04/06 03:18:22;;;;;;;0.30;0.30;;;;;;;18.85;43.73;101329.50;5094626;28;20050;-46
2023/04/06 03:20:47;;;;;;;0.30;0.30;;;;;;;18.85;43.61;101324.81;5076805;28;20051;-46
2023/04/06 03:23:13;;;;;;;0.20;0.20;;;;;;;18.85;43.51;101333.09;5094489;28;20048;-48
2023/04/06 03:25:40;;;;;;;0.30;0.30;;;;;;;18.86;43.72;101331.16;5093971;28;20054;-45
2023/04/06 03:28:05;;;;;;;0.30;0.30;;;;;;;18.84;43.72;101336.94;5094388;28;20044;-47
2023/04/06 03:30:31;;;;;;;0.30;0.30;;;;;;;18.86;43.57;101339.44;5096525;28;20047;-46
2023/04/06 03:32:57;;;;;;;0.30;0.30;;;;;;;18.85;43.59;101324.81;5101246;27;20046;-45
2023/04/06 03:35:22;;;;;;;0.30;0.30;;;;;;;18.85;43.47;101327.56;5113637;28;20047;-47
2023/04/06 03:37:48;;;;;;;0.20;0.20;;;;;;;18.85;43.54;101329.50;5114664;28;20051;-46
2023/04/06 03:40:14;;;;;;;0.30;0.30;;;;;;;18.85;43.51;101322.03;5114220;28;20043;-46
2023/04/06 03:42:40;;;;;;;0.30;0.30;;;;;;;18.85;43.79;101333.09;5115064;28;20043;-46
2023/04/06 03:45:06;;;;;;;0.30;0.30;;;;;;;18.86;43.74;101329.22;5114639;28;20132;-45
2023/04/06 03:47:31;;;;;;;0.30;0.30;;;;;;;18.85;43.69;101329.50;5115028;28;20074;-46
2023/04/06 03:49:57;;;;;;;0.30;0.30;;;;;;;18.86;43.70;101325.63;5114283;28;20057;-45
2023/04/06 03:52:23;;;;;;;0.30;0.30;;;;;;;18.86;43.59;101325.63;5114827;28;20043;-45
2023/04/06 03:54:49;;;;;;;0.30;0.30;;;;;;;18.85;43.59;101322.03;5096363;28;20047;-46
2023/04/06 03:57:15;;;;;;;0.20;0.20;;;;;;;18.85;43.49;101324.81;5114804;28;20488;-46
2023/04/06 03:59:40;;;;;;;0.20;0.20;;;;;;;18.86;43.53;101322.88;5114475;28;20438;-46
2023/04/06 04:02:06;;;;;;;0.20;0.20;;;;;;;18.85;43.78;101319.28;5115578;27;20104;-48
2023/04/06 04:04:32;;;;;;;0.20;0.20;;;;;;;18.85;43.41;101315.69;5118693;28;20119;-45
2023/04/06 04:06:58;;;;;;;0.20;0.20;;;;;;;18.85;43.61;101321.22;5118221;28;20047;-45
2023/04/06 04:09:23;;;;;;;0.20;0.20;;;;;;;18.86;43.54;101311.84;5115470;28;20070;-47
2023/04/06 04:11:49;;;;;;;0.20;0.20;;;;;;;18.86;43.67;101322.88;5097423;28;20056;-45
2023/04/06 04:14:15;;;;;;;0.20;0.20;;;;;;;18.85;43.52;101323.97;5098252;28;20048;-47
2023/04/06 04:16:41;;;;;;;0.20;0.20;;;;;;;18.85;43.36;101315.69;5097637;28;20708;-45
2023/04/06 04:19:07;;;;;;;0.30;0.30;;;;;;;18.86;43.40;101315.41;5097629;28;20157;-45
2023/04/06 04:21:33;;;;;;;0.30;0.30;;;;;;;18.86;43.71;101322.88;5079268;28;20051;-48
2023/04/06 04:23:59;;;;;;;0.22;0.22;;;;;;;18.85;43.44;101318.47;5097943;28;20060;-46
2023/04/06 04:26:24;;;;;;;0.30;0.30;;;;;;;18.86;43.62;101322.88;5097944;28;20058;-46
2023/04/06 04:28:50;;;;;;;0.30;0.30;;;;;;;18.85;43.59;101315.69;5097832;28;20044;-46
2023/04/06 04:31:18;;;;;;;0.30;0.30;;;;;;;18.85;43.45;101315.69;5079005;28;20048;-45
2023/04/06 04:33:43;;;;;;;0.20;0.20;;;;;;;18.85;43.52;101311.00;5117889;28;20145;-45
2023/04/06 04:36:10;;;;;;;0.30;0.30;;;;;;;18.86;43.40;101320.94;5120100;27;20269;-45
2023/04/06 04:38:35;;;;;;;0.30;0.30;;;;;;;18.86;43.77;101317.34;5138794;27;20866;-44
2023/04/06 04:41:01;;;;;;;0.30;0.30;;;;;;;18.86;43.72;101322.88;5138818;27;20154;-47
2023/04/06 04:43:27;;;;;;;0.30;0.30;;;;;;;18.86;43.61;101322.88;5083398;28;20092;-45
2023/04/06 04:45:52;;;;;;;0.30;0.30;;;;;;;18.86;43.44;101328.38;5097821;28;20127;-47
2023/04/06 04:48:18;;;;;;;0.30;0.30;;;;;;;18.86;43.81;101320.09;5097372;28;20440;-45
2023/04/06 04:50:44;;;;;;;0.30;0.30;;;;;;;18.85;43.56;101319.28;5103580;28;20055;-49
2023/04/06 04:53:09;;;;;;;0.30;0.30;;;;;;;18.86;43.63;101322.88;5117217;28;20757;-46
2023/04/06 04:55:35;;;;;;;0.25;0.25;;;;;;;18.86;43.80;101322.88;5117955;28;20058;-46
2023/04/06 04:58:02;;;;;;;0.30;0.30;;;;;;;18.85;43.73;101316.53;5117896;28;20069;-47
2023/04/06 05:00:28;;;;;;;0.30;0.30;;;;;;;18.86;43.50;101320.09;5117507;28;20047;-46
2023/04/06 05:02:53;;;;;;;0.30;0.30;;;;;;;18.85;43.53;101316.53;5116785;28;20047;-47
2023/04/06 05:05:19;;;;;;;0.30;0.30;;;;;;;18.86;43.59;101325.63;5117761;28;20055;-45
2023/04/06 05:07:45;;;;;;;0.30;0.30;;;;;;;18.85;43.44;101327.56;5117704;28;20118;-48
2023/04/06 05:10:11;;;;;;;0.20;0.20;;;;;;;18.85;43.56;101322.03;5116739;27;20354;-45
2023/04/06 05:12:37;;;;;;;0.28;0.28;;;;;;;18.85;43.54;101329.50;5116880;27;20125;-45
2023/04/06 05:15:03;;;;;;;0.30;0.30;;;;;;;18.85;43.77;101321.22;5098896;28;20130;-48
2023/04/06 05:17:29;;;;;;;0.20;0.20;;;;;;;18.85;43.66;101327.56;5099481;28;20066;-45
2023/04/06 05:19:55;;;;;;;0.30;0.30;;;;;;;18.85;43.78;101323.97;5117018;28;20070;-46
2023/04/06 05:22:20;;;;;;;0.30;0.30;;;;;;;18.85;43.61;101327.56;5117090;28;20046;-46
2023/04/06 05:24:46;;;;;;;0.30;0.30;;;;;;;18.85;43.72;101324.81;5116842;28;20084;-46
2023/04/06 05:27:12;;;;;;;0.20;0.20;;;;;;;18.86;43.39;101334.72;5117288;28;20047;-47
2023/04/06 05:29:37;;;;;;;0.20;0.20;;;;;;;18.85;43.42;101330.31;5117191;28;20405;-45
2023/04/06 05:32:03;;;;;;;0.30;0.30;;;;;;;18.85;43.37;101326.72;5116706;27;20104;-46
2023/04/06 05:34:29;;;;;;;0.20;0.20;;;;;;;18.85;43.70;101323.97;5116339;28;20554;-45
2023/04/06 05:36:55;;;;;;;0.30;0.30;;;;;;;18.85;43.58;101330.31;5116467;28;20054;-48
2023/04/06 05:39:20;;;;;;;0.30;0.30;;;;;;;18.85;43.53;101324.81;5116769;28;20241;-46
2023/04/06 05:41:46;;;;;;;0.30;0.30;;;;;;;18.85;43.67;101332.25;5112963;27;20049;-48
2023/04/06 05:44:12;;;;;;;0.30;0.30;;;;;;;18.85;43.67;101330.31;5096152;28;20414;-45
2023/04/06 05:46:37;;;;;;;0.30;0.30;;;;;;;18.85;43.53;101335.00;5095853;28;20051;-46
2023/04/06 05:49:03;;;;;;;0.30;0.30;;;;;;;18.85;43.41;101338.59;5096561;28;20043;-48
2023/04/06 05:51:32;;;;;;;0.30;0.30;;;;;;;18.86;43.62;101331.16;5095735;28;20077;-46
2023/04/06 05:53:57;;;;;;;0.30;0.30;;;;;;;18.85;43.72;101330.31;5114005;28;20047;-45
2023/04/06 05:56:23;;;;;;;0.30;0.30;;;;;;;18.85;43.58;101327.56;5116712;28;20414;-49
2023/04/06 05:58:49;;;;;;;0.30;0.30;;;;;;;18.84;43.49;101331.44;5117011;28;20051;-45
2023/04/06 06:01:15;;;;;;;0.20;0.20;;;;;;;18.85;43.53;101327.56;5116155;28;20597;-47
2023/04/06 06:03:41;;;;;;;0.30;0.30;;;;;;;18.84;43.60;101327.84;5097736;28;20074;-46
2023/04/06 06:06:06;;;;;;;0.30;0.30;;;;;;;18.84;43.55;101325.09;5116162;28;20051;-46
2023/04/06 06:08:32;;;;;;;0.30;0.30;;;;;;;18.85;43.76;101329.50;5116864;28;20434;-45
2023/04/06 06:10:58;;;;;;;0.30;0.30;;;;;;;18.85;43.60;101324.81;5098714;27;20047;-46
2023/04/06 06:13:24;;;;;;;0.30;0.30;;;;;;;18.85;43.34;101313.75;5113158;28;20043;-46
2023/04/06 06:15:50;;;;;;;0.30;0.30;;;;;;;18.85;43.39;101315.69;5098045;28;20054;-45
2023/04/06 06:18:15;;;;;;;0.30;0.30;;;;;;;18.85;43.45;101316.53;5097830;28;20039;-49
2023/04/06 06:20:41;;;;;;;0.20;0.20;;;;;;;18.85;43.62;101318.47;5116420;28;20450;-46
2023/04/06 06:23:07;;;;;;;0.30;0.30;;;;;;;18.86;43.48;101318.19;5116025;28;20177;-45
2023/04/06 06:25:32;;;;;;;0.30;0.30;;;;;;;18.85;43.44;101321.22;5115243;27;20054;-46
2023/04/06 06:27:58;;;;;;;0.30;0.30;;;;;;;18.85;43.43;101323.97;5116164;28;20047;-45
2023/04/06 06:30:24;;;;;;;0.25;0.25;;;;;;;18.85;43.44;101318.47;5116238;28;20499;-46
2023/04/06 06:32:50;;;;;;;0.30;0.30;;;;;;;18.85;43.50;101322.03;5115902;27;20532;-48
2023/04/06 06:35:17;;;;;;;0.30;0.30;;;;;;;18.85;43.67;101318.47;5097386;28;20147;-48
2023/04/06 06:37:42;;;;;;;0.30;0.30;;;;;;;18.84;43.71;101323.16;5115063;28;20138;-47
2023/04/06 06:40:10;;;;;;;0.30;0.30;;;;;;;18.84;43.43;101317.63;5112683;28;20047;-45
2023/04/06 06:42:36;;;;;;;0.20;0.20;;;;;;;18.84;43.71;101323.16;5090156;28;20126;-46
2023/04/06 06:45:02;;;;;;;0.30;0.30;;;;;;;18.84;43.63;101320.38;5115741;28;20058;-45
2023/04/06 06:47:28;;;;;;;0.30;0.30;;;;;;;18.84;43.46;101316.81;5115580;28;20130;-46
2023/04/06 06:49:53;;;;;;;0.30;0.30;;;;;;;18.85;43.45;101318.47;5115869;28;20529;-46
2023/04/06 06:52:19;;;;;;;0.30;0.30;;;;;;;18.86;43.51;101322.88;5115743;28;20058;-45
2023/04/06 06:54:45;;;;;;;0.30;0.30;;;;;;;18.85;43.44;101323.97;5115076;28;20422;-47
2023/04/06 06:57:10;;;;;;;0.20;0.20;;;;;;;18.85;43.63;101318.47;5115486;28;20548;-45
2023/04/06 06:59:36;;;;;;;0.20;0.20;;;;;;;18.84;43.56;101325.91;5115607;28;20051;-45
2023/04/06 07:02:02;;;;;;;0.30;0.30;;;;;;;18.85;43.55;101322.03;5109778;28;20475;-46
2023/04/06 07:04:28;;;;;;;0.30;0.30;;;;;;;18.84;43.25;101314.88;5095093;28;20058;-48
2023/04/06 07:06:53;;;;;;;0.22;0.22;;;;;;;18.84;43.37;101314.88;5094765;28;20485;-48
2023/04/06 07:09:19;;;;;;;0.30;0.30;;;;;;;18.85;43.63;101315.69;5103287;28;20051;-46
2023/04/06 07:11:45;;;;;;;0.20;0.20;;;;;;;18.85;43.35;101313.75;5098511;28;20051;-46
2023/04/06 07:14:11;;;;;;;0.30;0.30;;;;;;;18.85;43.36;101299.97;5114917;28;20464;-46
2023/04/06 07:16:37;;;;;;;0.30;0.30;;;;;;;18.85;43.19;101299.97;5114810;28;20455;-47
2023/04/06 07:19:03;;;;;;;0.20;0.20;;;;;;;18.84;43.50;101297.50;5114883;28;20074;-45
2023/04/06 07:21:28;;;;;;;0.20;0.20;;;;;;;18.85;43.44;101299.13;5114828;28;20498;-45
2023/04/06 07:23:54;;;;;;;0.30;0.30;;;;;;;18.86;43.28;101295.28;5115216;28;20247;-47
2023/04/06 07:26:20;;;;;;;0.30;0.30;;;;;;;18.85;43.42;101301.91;5114638;28;20438;-49
2023/04/06 07:28:45;;;;;;;0.30;0.30;;;;;;;18.85;43.55;101294.44;5115040;28;20198;-45
2023/04/06 07:31:11;;;;;;;0.20;0.20;;;;;;;18.85;43.35;101294.44;5114931;27;20047;-47
2023/04/06 07:33:37;;;;;;;0.20;0.20;;;;;;;18.84;43.34;101284.53;5115022;28;20133;-46
2023/04/06 07:36:03;;;;;;;0.30;0.30;;;;;;;18.86;43.41;101295.28;5115944;27;20044;-47
2023/04/06 07:38:29;;;;;;;0.30;0.30;;;;;;;18.84;43.44;101292.78;5118101;28;20039;-45
2023/04/06 07:40:55;;;;;;;0.20;0.20;;;;;;;18.86;43.43;101298.03;5117652;28;20402;-46
2023/04/06 07:43:20;;;;;;;0.20;0.20;;;;;;;18.86;43.50;101292.50;5118350;28;20131;-45
2023/04/06 07:45:46;;;;;;;0.20;0.20;;;;;;;18.85;43.30;101293.63;5118269;28;20063;-47
2023/04/06 07:48:12;;;;;;;0.20;0.20;;;;;;;18.84;43.61;101292.78;5118375;28;20544;-48
2023/04/06 07:50:37;;;;;;;0.20;0.20;;;;;;;18.85;43.28;101285.34;5118089;28;20047;-45
2023/04/06 07:53:03;;;;;;;0.20;0.20;;;;;;;18.85;43.55;101288.94;5118392;28;20605;-47
2023/04/06 07:55:29;;;;;;;0.30;0.30;;;;;;;18.85;43.35;101291.69;5118894;28;20047;-47
2023/04/06 07:57:55;;;;;;;0.20;0.20;;;;;;;18.85;43.68;101291.69;5114200;28;20047;-46
2023/04/06 08:00:21;;;;;;;0.40;0.40;;;;;;;18.85;43.71;101294.44;5118470;27;20043;-45
2023/04/06 08:02:46;;;;;;;0.20;0.20;;;;;;;18.85;43.60;101291.69;5105839;27;20069;-47
2023/04/06 08:05:12;;;;;;;0.20;0.20;;;;;;;18.86;43.37;101287.00;5098170;28;20048;-46
2023/04/06 08:07:38;;;;;;;0.20;0.20;;;;;;;18.85;43.56;101297.22;5097874;28;20070;-47
2023/04/06 08:10:04;;;;;;;0.20;0.20;;;;;;;18.84;43.41;101292.78;5097863;27;20052;-47
2023/04/06 08:12:30;;;;;;;0.30;0.30;;;;;;;18.85;43.34;101288.09;5107620;28;20058;-47
2023/04/06 08:14:56;;;;;;;0.20;0.20;;;;;;;18.84;43.66;101287.28;5118419;28;20047;-47
2023/04/06 08:17:22;;;;;;;0.30;0.30;;;;;;;18.85;43.43;101294.44;5118159;28;20403;-46
2023/04/06 08:19:48;;;;;;;0.20;0.20;;;;;;;18.85;43.70;101288.94;5117879;28;20039;-46
2023/04/06 08:22:13;;;;;;;0.20;0.20;;;;;;;18.86;43.46;101295.28;5117721;28;20150;-47
2023/04/06 08:24:39;;;;;;;0.20;0.20;;;;;;;18.85;43.43;101299.13;5118156;28;20536;-46
2023/04/06 08:27:05;;;;;;;0.20;0.20;;;;;;;18.85;43.43;101286.16;5118370;28;20051;-46
2023/04/06 08:29:31;;;;;;;0.30;0.30;;;;;;;18.85;43.46;101291.69;5099814;28;20216;-46
2023/04/06 08:31:56;;;;;;;0.30;0.30;;;;;;;18.86;43.60;101287.00;5117658;27;20074;-50
2023/04/06 08:34:22;;;;;;;0.20;0.20;;;;;;;18.85;43.36;101285.34;5118108;28;20530;-45
2023/04/06 08:36:48;;;;;;;0.20;0.20;;;;;;;18.85;43.55;101286.16;5117815;28;20372;-46
2023/04/06 08:39:14;;;;;;;0.20;0.20;;;;;;;18.85;43.36;101283.41;5098833;28;20114;-47
2023/04/06 08:41:43;;;;;;;0.20;0.20;;;;;;;18.86;43.66;101278.72;5116921;27;20982;-46
2023/04/06 08:44:09;;;;;;;0.30;0.30;;;;;;;18.85;43.62;101272.38;5116928;28;20046;-45
2023/04/06 08:46:35;;;;;;;0.28;0.28;;;;;;;18.85;43.50;101285.34;5117928;28;20435;-46
2023/04/06 08:49:02;;;;;;;0.20;0.20;;;;;;;18.85;43.53;101275.13;5116768;27;20551;-46
2023/04/06 08:51:30;;;;;;;0.20;0.20;;;;;;;18.85;43.41;101266.03;5117554;28;20487;-46
2023/04/06 08:53:57;;;;;;;0.20;0.20;;;;;;;18.86;43.64;101278.72;5117259;28;20054;-48
2023/04/06 08:56:24;;;;;;;0.20;0.20;;;;;;;18.85;43.72;101277.88;5099557;28;20043;-46
2023/04/06 08:58:52;;;;;;;0.20;0.20;;;;;;;18.85;43.55;101271.53;5116845;28;20078;-47
2023/04/06 09:01:22;;;;;;;0.30;0.30;;;;;;;18.84;43.43;101273.47;5116952;28;20268;-47
2023/04/06 09:03:49;;;;;;;0.30;0.30;;;;;;;18.85;43.41;101269.63;5098279;28;20039;-45
2023/04/06 09:06:15;;;;;;;0.20;0.20;;;;;;;18.84;43.44;101270.72;5117886;28;20050;-48
2023/04/06 09:08:41;;;;;;;0.20;0.20;;;;;;;18.85;43.50;101274.31;5116776;27;20047;-45
2023/04/06 09:11:08;;;;;;;0.30;0.30;;;;;;;18.85;43.62;101272.38;5116711;28;20626;-48
2023/04/06 09:13:51;;;;;;;0.20;0.20;;;;;;;18.85;43.47;101274.31;5116778;28;20070;-49
2023/04/06 09:16:17;;;;;;;0.20;0.20;;;;;;;18.84;43.44;101273.47;5081859;28;20137;-49
2023/04/06 09:18:43;;;;;;;0.28;0.28;;;;;;;18.85;43.50;101271.53;5098891;28;20413;-48
2023/04/06 09:21:09;;;;;;;0.20;0.20;;;;;;;18.85;43.45;101266.03;5117160;28;20469;-48
2023/04/06 09:23:35;;;;;;;0.20;0.20;;;;;;;18.84;43.77;101264.38;5116791;28;20047;-48
2023/04/06 09:26:07;;;;;;;0.20;0.20;;;;;;;18.84;43.61;101267.97;5098627;28;20045;-48
2023/04/06 09:28:41;;;;;;;0.22;0.22;;;;;;;18.85;43.71;101261.34;5117185;28;20047;-48
2023/04/06 09:31:09;;;;;;;0.20;0.20;;;;;;;18.84;43.58;101265.19;5081921;27;20079;-49
2023/04/06 09:33:40;;;;;;;0.20;0.20;;;;;;;18.85;43.69;101263.28;5116758;28;20047;-48
2023/04/06 09:36:07;;;;;;;0.30;0.30;;;;;;;18.85;43.70;101266.84;5098804;28;20078;-48
2023/04/06 09:38:32;;;;;;;0.20;0.20;;;;;;;18.85;43.78;101266.03;5082117;28;20046;-49
2023/04/06 09:40:58;;;;;;;0.30;0.30;;;;;;;18.85;43.70;101252.22;5116904;28;20435;-48
2023/04/06 09:43:27;;;;;;;;;;;;;;;18.85;43.49;101255.81;5104854;28;20047;-47
2023/04/06 09:45:53;;;;;;;0.30;0.30;;;;;;;18.85;43.42;101252.22;5116342;28;19959;-50
2023/04/06 09:48:20;;;;;;;0.30;0.30;;;;;;;18.85;43.71;101255.00;5115476;28;20047;-50
2023/04/06 09:50:48;;;;;;;0.20;0.20;;;;;;;18.84;43.86;101253.34;5116908;27;20082;-48
2023/04/06 09:53:14;;;;;;;0.20;0.20;;;;;;;18.84;43.56;101259.69;5100540;27;20059;-49
2023/04/06 09:55:42;;;;;;;0.22;0.22;;;;;;;18.85;43.69;101257.75;5096136;28;20423;-48
2023/04/06 09:58:10;;;;;;;0.20;0.20;;;;;;;18.84;43.62;101262.44;5077992;28;20039;-48
2023/04/06 10:00:47;;;;;;;0.20;0.20;;;;;;;18.84;43.54;101262.44;5080509;28;20039;-47
2023/04/06 10:03:21;;;;;;;0.20;0.20;;;;;;;18.85;43.46;101253.06;5092824;28;20051;-49
2023/04/06 10:05:51;;;;;;;0.30;0.30;;;;;;;18.85;43.82;101252.22;5098092;28;20067;-49
2023/04/06 10:08:17;;;;;;;0.30;0.30;;;;;;;18.84;43.59;101256.09;5116001;27;20039;-48
2023/04/06 10:10:43;;;;;;;0.30;0.30;;;;;;;18.84;43.54;101251.41;5116699;28;20388;-47
2023/04/06 10:13:10;;;;;;;0.30;0.30;;;;;;;18.84;43.51;101250.56;5115950;28;20615;-48
2023/04/06 10:15:38;;;;;;;0.20;0.20;;;;;;;18.85;43.75;101255.00;5097637;28;20499;-51
2023/04/06 10:18:04;;;;;;;0.30;0.30;;;;;;;18.85;43.55;101260.50;5098014;28;20087;-47
2023/04/06 10:20:51;;;;;;;0.30;0.30;;;;;;;18.84;43.54;101256.09;5098025;28;20575;-48
2023/04/06 10:23:24;;;;;;;0.20;0.20;;;;;;;18.84;43.70;101262.44;5083246;28;20043;-49
2023/04/06 10:25:55;;;;;;;0.30;0.30;;;;;;;18.84;43.77;101254.16;5097950;28;20527;-49
2023/04/06 10:28:21;;;;;;;0.25;0.25;;;;;;;18.84;43.64;101254.16;5115892;28;20078;-48
2023/04/06 10:30:46;;;;;;;0.20;0.20;;;;;;;18.84;43.29;101254.16;5098019;28;20498;-48
2023/04/06 10:33:13;;;;;;;0.30;0.30;;;;;;;18.85;43.41;101252.22;5115833;27;20052;-48
2023/04/06 10:35:39;;;;;;;0.30;0.30;;;;;;;18.84;43.61;101256.91;5116193;28;20069;-48
2023/04/06 10:38:05;;;;;;;0.25;0.25;;;;;;;18.84;43.37;101254.16;5116015;28;20050;-48
2023/04/06 10:40:31;;;;;;;0.20;0.20;;;;;;;18.85;43.76;101255.00;5116369;28;20089;-48
2023/04/06 10:43:07;;;;;;;0.30;0.30;;;;;;;18.84;43.42;101250.56;5097182;28;20066;-48
2023/04/06 10:45:33;;;;;;;0.30;0.30;;;;;;;18.84;43.54;101243.13;5114860;28;20055;-48
2023/04/06 10:47:59;;;;;;;0.20;0.20;;;;;;;18.84;43.52;101245.06;5115415;28;20134;-49
2023/04/06 10:50:25;;;;;;;0.20;0.20;;;;;;;18.84;43.80;101250.56;5115971;27;20054;-49
2023/04/06 10:53:06;;;;;;;0.20;0.20;;;;;;;18.85;43.46;101255.81;5103088;27;20043;-48
2023/04/06 10:55:31;;;;;;;0.20;0.20;;;;;;;18.83;43.89;101252.50;5115517;28;20054;-49
2023/04/06 10:57:57;;;;;;;0.20;0.20;;;;;;;18.84;43.46;101253.34;5115570;28;20047;-48
2023/04/06 11:00:23;;;;;;;0.20;0.20;;;;;;;18.85;43.72;101252.22;5115600;28;20402;-49
2023/04/06 11:02:49;;;;;;;0.30;0.30;;;;;;;18.85;43.49;101252.22;5097772;28;20039;-49
2023/04/06 11:05:15;;;;;;;0.20;0.20;;;;;;;18.84;43.47;101251.41;5096901;28;20050;-48
2023/04/06 11:07:41;;;;;;;0.20;0.20;;;;;;;18.85;43.72;101249.47;5093285;28;20117;-49
2023/04/06 11:10:07;;;;;;;0.20;0.20;;;;;;;18.84;43.36;101245.88;5076652;28;20043;-49
2023/04/06 11:12:42;;;;;;;0.30;0.30;;;;;;;18.84;43.43;101245.88;5106537;28;20483;-49
2023/04/06 11:15:08;;;;;;;0.28;0.28;;;;;;;18.84;43.56;101247.81;5096784;28;20047;-49
2023/04/06 11:17:36;;;;;;;0.30;0.30;;;;;;;18.84;43.67;101247.81;5115148;28;20054;-48
2023/04/06 11:20:03;;;;;;;0.20;0.20;;;;;;;18.84;43.53;101247.81;5115524;28;20130;-49